KMTC/MTC METAR and TAF weather

Enter ICAO airport designator
Station Type Date Time Source
KMTC METAR 2022/06/26 06:56 UTC NOAA

KMTC 260656Z AUTO 00000KT 10SM OVC070 21/20 A2993 RMK AO2 RAB0559E08RAB10E17 SLP136 P0000 T02060204


Station Type Date Time Source
KMTC Decoded METAR 2022/06/26 06:56 UTC NOAA

Selfridge Air National Guard Base, MI, United States (KMTC) 42-37N 082-50W
Jun 26, 2022 - 02:56 AM EDT / 2022.06.26 0656 UTC
Wind: Calm:0
Visibility: 10 mile(s):0
Sky conditions: overcast
Precipitation last hour: A trace
Temperature: 69.1 F (20.6 C)
Dew Point: 68.7 F (20.4 C)
Relative Humidity: 98%
Pressure (altimeter): 29.93 in. Hg (1013 hPa)
ob: KMTC 260656Z AUTO 00000KT 10SM OVC070 21/20 A2993 RMK AO2 RAB0559E08RAB10E17 SLP136 P0000 T02060204
cycle: 7

Station Type Date Time Source
KMTC TAF 2022/06/26 01:09 UTC NOAA

TAF KMTC 260100Z 2601/2707 VRB06KT 9000 -SHRA SCT160 BKN210 QNH2992INS
BECMG 2613/2614 24009KT 9999 NSW SCT025 BKN035 OVC045 QNH2992INS
BECMG 2616/2617 27012G18KT 9999 BKN035 QNH2987INS
BECMG 2701/2702 30009KT 9999 FEW050 QNH2996INS TX30/2621Z TN20/2606Z LAST NO
AMDS AFT 2603 NEXT 2609

Example: see airport list